createdAt,value
2018-04-16T00:00:38.331Z,86.99
2018-04-16T00:01:38.326Z,86.51
2018-04-16T00:02:38.374Z,87.18
2018-04-16T00:03:38.335Z,87.14
2018-04-16T00:04:38.329Z,87.43
2018-04-16T00:05:38.339Z,87.71
2018-04-16T00:06:38.361Z,87.62
2018-04-16T00:07:38.369Z,88.00
2018-04-16T00:08:38.346Z,87.56
2018-04-16T00:09:38.354Z,87.33
2018-04-16T00:10:38.357Z,87.18
2018-04-16T00:11:38.359Z,87.33
2018-04-16T00:12:38.367Z,86.47
2018-04-16T00:13:38.369Z,86.70
2018-04-16T00:14:38.385Z,87.14
2018-04-16T00:15:38.370Z,87.23
2018-04-16T00:16:38.373Z,87.43
2018-04-16T00:17:38.380Z,87.52
2018-04-16T00:18:38.387Z,87.33
2018-04-16T00:19:38.393Z,87.43
2018-04-16T00:20:38.390Z,87.43
2018-04-16T00:21:38.394Z,87.43
2018-04-16T00:22:38.414Z,87.56
2018-04-16T00:23:38.405Z,87.33
2018-04-16T00:24:38.408Z,87.33
2018-04-16T00:25:38.423Z,87.43
2018-04-16T00:26:38.405Z,87.62
2018-04-16T00:27:38.425Z,87.43
2018-04-16T00:28:38.439Z,87.71
2018-04-16T00:29:38.436Z,87.81
2018-04-16T00:30:38.436Z,87.33
2018-04-16T00:31:38.430Z,87.43
2018-04-16T00:32:38.428Z,87.43
2018-04-16T00:33:38.430Z,87.81
2018-04-16T00:34:38.448Z,87.43
2018-04-16T00:35:38.439Z,87.71
2018-04-16T00:36:38.441Z,87.62
2018-04-16T00:37:38.457Z,88.00
2018-04-16T00:38:38.457Z,87.71
2018-04-16T00:39:38.457Z,88.29
2018-04-16T00:40:38.461Z,88.29
2018-04-16T00:41:38.460Z,88.67
2018-04-16T00:42:38.460Z,88.67
2018-04-16T00:43:38.467Z,88.38
2018-04-16T00:44:38.468Z,88.38
2018-04-16T00:45:38.479Z,88.38
2018-04-16T00:46:38.483Z,88.48
2018-04-16T00:47:38.509Z,88.48
2018-04-16T00:48:38.494Z,88.76
2018-04-16T00:49:38.496Z,89.05
2018-04-16T00:50:38.490Z,89.24
2018-04-16T00:51:38.497Z,89.62
2018-04-16T00:52:38.497Z,89.53
2018-04-16T00:53:38.693Z,89.24
2018-04-16T00:54:38.511Z,89.15
2018-04-16T00:55:38.511Z,89.43
2018-04-16T00:56:38.517Z,89.72
2018-04-16T00:57:38.522Z,89.62
2018-04-16T00:58:38.521Z,90.20
2018-04-16T00:59:38.532Z,90.20
2018-04-16T01:00:38.533Z,89.87
2018-04-16T01:01:38.527Z,90.06
2018-04-16T01:02:38.533Z,90.20
2018-04-16T01:03:38.541Z,90.67
2018-04-16T01:04:38.543Z,90.73
2018-04-16T01:05:38.549Z,90.53
2018-04-16T01:06:38.545Z,90.82
2018-04-16T01:07:38.557Z,90.73
2018-04-16T01:08:38.560Z,90.73
2018-04-16T01:09:38.558Z,89.96
2018-04-16T01:10:38.558Z,90.16
2018-04-16T01:11:38.588Z,89.96
2018-04-16T01:12:38.574Z,90.06
2018-04-16T01:13:38.565Z,90.25
2018-04-16T01:14:38.574Z,90.06
2018-04-16T01:15:38.586Z,90.16
2018-04-16T01:16:38.599Z,90.06
2018-04-16T01:17:38.592Z,90.25
2018-04-16T01:18:38.596Z,90.16
2018-04-16T01:19:38.599Z,89.96
2018-04-16T01:20:38.598Z,90.16
2018-04-16T01:21:38.600Z,90.16
2018-04-16T01:22:38.604Z,90.16
2018-04-16T01:23:38.613Z,89.87
2018-04-16T01:24:38.651Z,90.06
2018-04-16T01:25:38.613Z,89.87
2018-04-16T01:26:38.612Z,89.96
2018-04-16T01:27:38.627Z,89.48
2018-04-16T01:28:38.627Z,89.67
2018-04-16T01:29:38.633Z,89.87
2018-04-16T01:30:38.642Z,89.67
2018-04-16T01:31:38.626Z,90.06
2018-04-16T01:32:38.652Z,89.96
2018-04-16T01:33:38.634Z,90.16
2018-04-16T01:34:38.645Z,89.58
2018-04-16T01:35:38.644Z,90.06
2018-04-16T01:36:38.645Z,89.58
2018-04-16T01:37:38.650Z,89.96
2018-04-16T01:38:38.656Z,89.77
2018-04-16T01:39:38.657Z,89.77
2018-04-16T01:40:38.659Z,90.16
2018-04-16T01:41:38.685Z,90.25
2018-04-16T01:42:38.679Z,90.16
2018-04-16T01:43:38.685Z,90.25
2018-04-16T01:44:39.856Z,89.77
2018-04-16T01:45:42.308Z,89.58
2018-04-16T01:46:39.544Z,89.67
2018-04-16T01:47:39.856Z,90.25
2018-04-16T01:48:38.690Z,90.63
2018-04-16T01:49:38.696Z,90.82
2018-04-16T01:50:38.705Z,90.16
2018-04-16T01:51:38.697Z,90.63
2018-04-16T01:52:38.707Z,90.44
2018-04-16T01:53:38.713Z,90.82
2018-04-16T01:54:38.714Z,90.44
2018-04-16T01:55:38.712Z,90.16
2018-04-16T01:56:38.724Z,90.44
2018-04-16T01:57:38.713Z,90.44
2018-04-16T01:58:42.533Z,90.73
2018-04-16T01:59:38.719Z,90.82
2018-04-16T02:00:38.722Z,90.53
2018-04-16T02:01:38.735Z,90.92
2018-04-16T02:02:38.732Z,90.63
2018-04-16T02:03:38.738Z,90.44
2018-04-16T02:04:38.738Z,90.63
2018-04-16T02:05:38.743Z,90.63
2018-04-16T02:06:38.752Z,90.30
2018-04-16T02:07:38.745Z,90.59
2018-04-16T02:08:38.754Z,90.53
2018-04-16T02:09:38.760Z,90.16
2018-04-16T02:10:38.757Z,90.25
2018-04-16T02:11:38.759Z,90.25
2018-04-16T02:12:38.768Z,89.87
2018-04-16T02:13:38.765Z,89.67
2018-04-16T02:14:38.773Z,89.39
2018-04-16T02:15:38.772Z,90.06
2018-04-16T02:16:38.787Z,89.87
2018-04-16T02:17:38.773Z,89.48
2018-04-16T02:18:38.779Z,89.39
2018-04-16T02:19:38.784Z,89.10
2018-04-16T02:20:38.791Z,89.20
2018-04-16T02:21:38.793Z,89.48
2018-04-16T02:22:38.798Z,89.77
2018-04-16T02:23:38.800Z,89.48
2018-04-16T02:24:38.803Z,89.58
2018-04-16T02:25:38.807Z,89.39
2018-04-16T02:26:38.806Z,89.67
2018-04-16T02:27:38.814Z,89.58
2018-04-16T02:28:38.821Z,89.53
2018-04-16T02:29:38.811Z,90.11
2018-04-16T02:30:38.820Z,89.82
2018-04-16T02:31:38.826Z,89.82
2018-04-16T02:32:39.708Z,90.11
2018-04-16T02:33:38.827Z,90.11
2018-04-16T02:34:38.830Z,90.20
2018-04-16T02:35:38.837Z,89.92
2018-04-16T02:36:38.843Z,90.39
2018-04-16T02:37:38.838Z,90.11
2018-04-16T02:38:38.848Z,90.30
2018-04-16T02:39:38.846Z,90.11
2018-04-16T02:40:38.848Z,90.11
2018-04-16T02:41:38.859Z,90.20
2018-04-16T02:42:38.860Z,90.68
2018-04-16T02:43:38.869Z,90.59
2018-04-16T02:44:38.860Z,90.39
2018-04-16T02:45:38.870Z,90.49
2018-04-16T02:46:38.876Z,90.78
2018-04-16T02:47:38.881Z,90.59
2018-04-16T02:48:38.885Z,90.59
2018-04-16T02:49:38.891Z,90.49
2018-04-16T02:50:38.888Z,90.78
2018-04-16T02:51:38.915Z,90.68
2018-04-16T02:52:38.890Z,90.68
2018-04-16T02:53:38.888Z,90.68
2018-04-16T02:54:38.899Z,90.78
2018-04-16T02:55:38.903Z,90.59
2018-04-16T02:56:38.900Z,90.78
2018-04-16T02:57:38.904Z,90.39
2018-04-16T02:58:38.907Z,90.68
2018-04-16T02:59:38.910Z,90.68
2018-04-16T03:00:38.922Z,90.49
2018-04-16T03:01:38.915Z,90.49
2018-04-16T03:02:38.920Z,90.30
2018-04-16T03:03:38.918Z,90.30
2018-04-16T03:04:38.928Z,90.49
2018-04-16T03:05:38.930Z,90.39
2018-04-16T03:06:38.934Z,90.59
2018-04-16T03:07:38.933Z,90.59
2018-04-16T03:08:38.939Z,90.78
2018-04-16T03:09:38.942Z,90.30
2018-04-16T03:10:38.963Z,90.30
2018-04-16T03:11:38.956Z,90.97
2018-04-16T03:12:38.964Z,91.16
2018-04-16T03:13:38.971Z,90.88
2018-04-16T03:14:38.972Z,90.68
2018-04-16T03:15:38.972Z,90.49
2018-04-16T03:16:38.980Z,90.39
2018-04-16T03:17:38.989Z,90.30
2018-04-16T03:18:38.972Z,90.49
2018-04-16T03:19:39.003Z,90.49
2018-04-16T03:20:39.014Z,90.49
2018-04-16T03:21:38.973Z,90.59
2018-04-16T03:22:38.976Z,90.78
2018-04-16T03:23:38.993Z,90.45
2018-04-16T03:24:38.988Z,90.97
2018-04-16T03:25:39.028Z,90.35
2018-04-16T03:26:38.994Z,90.45
2018-04-16T03:27:38.992Z,90.78
2018-04-16T03:28:39.000Z,90.73
2018-04-16T03:29:38.998Z,91.11
2018-04-16T03:30:39.014Z,90.54
2018-04-16T03:31:39.009Z,91.64
2018-04-16T03:32:39.015Z,91.59
2018-04-16T03:33:39.024Z,91.54
2018-04-16T03:34:39.026Z,91.35
2018-04-16T03:35:39.027Z,91.30
2018-04-16T03:36:39.028Z,90.83
2018-04-16T03:37:39.039Z,90.83
2018-04-16T03:38:39.046Z,91.21
2018-04-16T03:39:39.045Z,91.50
2018-04-16T03:40:39.052Z,91.02
2018-04-16T03:41:39.031Z,91.69
2018-04-16T03:42:39.067Z,91.78
2018-04-16T03:43:39.070Z,92.36
2018-04-16T03:44:39.041Z,92.26
2018-04-16T03:45:39.054Z,92.55
2018-04-16T03:46:39.060Z,92.26
2018-04-16T03:47:39.057Z,92.36
2018-04-16T03:48:39.057Z,92.07
2018-04-16T03:49:39.058Z,92.07
2018-04-16T03:50:39.064Z,91.97
2018-04-16T03:51:39.061Z,92.26
2018-04-16T03:52:39.069Z,92.16
2018-04-16T03:53:39.074Z,92.07
2018-04-16T03:54:39.081Z,92.45
2018-04-16T03:55:39.087Z,92.16
2018-04-16T03:56:39.095Z,92.55
2018-04-16T03:57:39.088Z,92.55
2018-04-16T03:58:39.132Z,93.41
2018-04-16T03:59:39.097Z,92.93
2018-04-16T04:00:39.095Z,93.41
2018-04-16T04:01:39.112Z,93.50
2018-04-16T04:02:39.113Z,93.41
2018-04-16T04:03:39.743Z,93.70
2018-04-16T04:04:39.110Z,93.79
2018-04-16T04:05:39.105Z,94.36
2018-04-16T04:06:39.122Z,93.79
2018-04-16T04:07:39.113Z,93.60
2018-04-16T04:08:39.106Z,93.74
2018-04-16T04:09:39.119Z,94.55
2018-04-16T04:10:39.113Z,94.46
2018-04-16T04:11:39.120Z,93.74
2018-04-16T04:12:39.124Z,93.70
2018-04-16T04:13:39.128Z,93.88
2018-04-16T04:14:39.143Z,93.79
2018-04-16T04:15:39.127Z,93.70
2018-04-16T04:16:39.142Z,94.55
2018-04-16T04:17:39.132Z,94.46
2018-04-16T04:18:39.146Z,94.51
2018-04-16T04:19:39.139Z,93.98
2018-04-16T04:20:39.147Z,93.70
2018-04-16T04:21:39.147Z,94.12
2018-04-16T04:22:39.146Z,94.12
2018-04-16T04:23:39.173Z,94.12
2018-04-16T04:24:39.156Z,94.27
2018-04-16T04:25:39.158Z,93.84
2018-04-16T04:26:39.162Z,94.31
2018-04-16T04:27:39.164Z,94.27
2018-04-16T04:28:39.170Z,94.31
2018-04-16T04:29:39.170Z,93.74
2018-04-16T04:30:39.179Z,94.12
2018-04-16T04:31:39.175Z,93.88
2018-04-16T04:32:39.172Z,94.12
2018-04-16T04:33:39.184Z,94.41
2018-04-16T04:34:39.184Z,94.41
2018-04-16T04:35:39.183Z,93.70
2018-04-16T04:36:39.190Z,93.74
2018-04-16T04:37:39.190Z,93.55
2018-04-16T04:38:39.194Z,93.74
2018-04-16T04:39:39.198Z,93.46
2018-04-16T04:40:39.203Z,93.65
2018-04-16T04:41:39.254Z,93.55
2018-04-16T04:42:39.209Z,93.46
2018-04-16T04:43:39.212Z,93.93
2018-04-16T04:44:39.208Z,93.84
2018-04-16T04:45:39.219Z,93.98
2018-04-16T04:46:39.220Z,93.60
2018-04-16T04:47:39.213Z,93.50
2018-04-16T04:48:39.219Z,93.70
2018-04-16T04:49:39.232Z,93.50
2018-04-16T04:50:39.229Z,93.02
2018-04-16T04:51:39.242Z,92.93
2018-04-16T04:52:39.321Z,93.31
2018-04-16T04:53:39.247Z,93.02
2018-04-16T04:54:39.252Z,93.21
2018-04-16T04:55:39.244Z,93.21
2018-04-16T04:56:39.243Z,93.31
2018-04-16T04:57:39.244Z,93.12
2018-04-16T04:58:39.252Z,93.02
2018-04-16T04:59:39.311Z,93.12
2018-04-16T05:00:39.252Z,92.64
2018-04-16T05:01:39.254Z,93.12
2018-04-16T05:02:39.260Z,92.93
2018-04-16T05:03:39.259Z,93.12
2018-04-16T05:04:39.258Z,92.93
2018-04-16T05:05:39.263Z,93.50
2018-04-16T05:06:39.265Z,93.60
2018-04-16T05:07:39.277Z,93.02
2018-04-16T05:08:39.278Z,93.31
2018-04-16T05:09:39.286Z,92.93
2018-04-16T05:10:39.280Z,93.12
2018-04-16T05:11:39.286Z,93.21
2018-04-16T05:12:39.287Z,93.12
2018-04-16T05:13:39.280Z,93.02
2018-04-16T05:14:39.286Z,92.93
2018-04-16T05:15:39.294Z,93.12
2018-04-16T05:16:39.306Z,92.74
2018-04-16T05:17:39.301Z,92.74
2018-04-16T05:18:39.310Z,92.55
2018-04-16T05:19:39.302Z,92.55
2018-04-16T05:20:39.304Z,92.07
2018-04-16T05:21:39.305Z,92.36
2018-04-16T05:22:39.321Z,92.55
2018-04-16T05:23:39.371Z,92.36
2018-04-16T05:24:39.315Z,92.07
2018-04-16T05:25:39.321Z,92.07
2018-04-16T05:26:39.318Z,92.26
2018-04-16T05:27:39.340Z,91.78
2018-04-16T05:28:39.335Z,91.40
2018-04-16T05:29:39.335Z,91.69
2018-04-16T05:30:39.331Z,91.40
2018-04-16T05:31:39.335Z,91.40
2018-04-16T05:32:39.335Z,91.69
2018-04-16T05:33:39.342Z,91.45
2018-04-16T05:34:39.343Z,91.50
2018-04-16T05:35:39.347Z,90.59
2018-04-16T05:36:39.353Z,91.06
2018-04-16T05:37:39.367Z,90.30
2018-04-16T05:38:39.360Z,90.39
2018-04-16T05:39:39.367Z,90.49
2018-04-16T05:40:39.373Z,90.88
2018-04-16T05:41:39.371Z,90.59
2018-04-16T05:42:39.394Z,90.39
2018-04-16T05:43:39.369Z,90.39
2018-04-16T05:44:39.396Z,90.39
2018-04-16T05:45:39.440Z,90.01
2018-04-16T05:46:39.381Z,89.92
2018-04-16T05:47:39.384Z,89.53
2018-04-16T05:48:39.380Z,89.44
2018-04-16T05:49:39.393Z,89.15
2018-04-16T05:50:39.565Z,88.68
2018-04-16T05:51:39.585Z,88.87
2018-04-16T05:52:39.503Z,88.96
2018-04-16T05:53:39.399Z,89.25
2018-04-16T05:54:40.712Z,89.29
2018-04-16T05:55:39.404Z,88.91
2018-04-16T05:56:39.407Z,88.62
2018-04-16T05:57:39.413Z,88.53
2018-04-16T05:58:39.408Z,88.91
2018-04-16T05:59:39.417Z,88.62
2018-04-16T06:00:39.584Z,87.86
2018-04-16T06:01:39.428Z,87.38
2018-04-16T06:02:39.430Z,87.38
2018-04-16T06:03:39.429Z,86.71
2018-04-16T06:04:39.434Z,86.37
2018-04-16T06:05:39.442Z,86.32
2018-04-16T06:06:39.482Z,83.05
2018-04-16T06:07:39.443Z,79.05
2018-04-16T06:08:39.459Z,73.85
2018-04-16T06:09:39.443Z,70.30
2018-04-16T06:10:39.506Z,68.22
2018-04-16T06:11:39.456Z,64.73
2018-04-16T06:12:39.458Z,61.99
2018-04-16T06:13:39.526Z,60.48
2018-04-16T06:14:39.468Z,58.77
2018-04-16T06:15:39.483Z,56.96
2018-04-16T06:16:39.477Z,55.65
2018-04-16T06:17:39.483Z,54.93
2018-04-16T06:18:39.482Z,53.50
2018-04-16T06:19:39.615Z,52.46
2018-04-16T06:20:39.497Z,51.40
2018-04-16T06:21:39.502Z,51.01
2018-04-16T06:22:39.514Z,50.45
2018-04-16T06:23:39.511Z,49.61
2018-04-16T06:24:39.521Z,48.95
2018-04-16T06:25:39.539Z,48.93
2018-04-16T06:26:39.539Z,48.47
2018-04-16T06:27:39.552Z,47.89
2018-04-16T06:28:39.570Z,47.40
2018-04-16T06:29:39.558Z,47.60
2018-04-16T06:30:40.708Z,47.38
2018-04-16T06:31:39.584Z,47.77
2018-04-16T06:32:39.597Z,48.15
2018-04-16T06:33:39.611Z,50.93
2018-04-16T06:34:39.616Z,53.75
2018-04-16T06:35:39.619Z,56.69
2018-04-16T06:36:39.636Z,58.59
2018-04-16T06:37:39.639Z,60.49
2018-04-16T06:38:39.648Z,61.25
2018-04-16T06:39:39.680Z,59.48
2018-04-16T06:40:39.678Z,58.69
2018-04-16T06:41:39.697Z,58.55
2018-04-16T06:42:39.696Z,58.01
2018-04-16T06:43:39.708Z,60.00
2018-04-16T06:44:39.720Z,61.42
2018-04-16T06:45:39.725Z,60.64
2018-04-16T06:46:39.733Z,57.16
2018-04-16T06:47:39.758Z,54.15
2018-04-16T06:48:39.751Z,51.68
2018-04-16T06:49:39.760Z,49.22
2018-04-16T06:50:39.767Z,48.44
2018-04-16T06:51:39.818Z,47.89
2018-04-16T06:52:39.788Z,46.77
2018-04-16T06:53:39.806Z,45.41
2018-04-16T06:54:39.816Z,45.41
2018-04-16T06:55:39.823Z,45.62
2018-04-16T06:56:39.841Z,45.29
2018-04-16T06:57:39.841Z,48.03
2018-04-16T06:58:39.863Z,49.02
2018-04-16T06:59:39.868Z,47.62
2018-04-16T07:00:39.890Z,45.51
2018-04-16T07:01:39.890Z,44.87
2018-04-16T07:02:39.907Z,43.85
2018-04-16T07:03:39.919Z,42.02
2018-04-16T07:04:39.944Z,41.94
2018-04-16T07:05:39.951Z,41.93
2018-04-16T07:06:39.966Z,42.95
2018-04-16T07:07:39.967Z,42.56
2018-04-16T07:08:39.997Z,43.98
2018-04-16T07:09:39.994Z,44.48
2018-04-16T07:10:40.016Z,45.37
2018-04-16T07:11:40.030Z,45.89
2018-04-16T07:12:40.034Z,45.07
2018-04-16T07:13:40.059Z,46.82
2018-04-16T07:14:40.073Z,48.25
2018-04-16T07:15:40.100Z,49.17
2018-04-16T07:16:40.095Z,48.42
2018-04-16T07:17:40.116Z,48.71
2018-04-16T07:18:40.135Z,49.63
2018-04-16T07:19:40.131Z,51.97
2018-04-16T07:20:40.155Z,54.36
2018-04-16T07:21:40.170Z,55.66
2018-04-16T07:22:40.176Z,56.40
2018-04-16T07:23:40.193Z,57.46
2018-04-16T07:24:40.203Z,58.49
2018-04-16T07:25:40.216Z,59.27
2018-04-16T07:26:40.235Z,59.81
2018-04-16T07:27:40.240Z,60.58
2018-04-16T07:28:40.257Z,61.32
2018-04-16T07:29:40.266Z,61.42
2018-04-16T07:30:40.279Z,61.52
2018-04-16T07:31:40.291Z,61.52
2018-04-16T07:32:40.300Z,61.61
2018-04-16T07:33:40.377Z,61.61
2018-04-16T07:34:40.323Z,62.19
2018-04-16T07:35:40.353Z,62.19
2018-04-16T07:36:40.350Z,62.29
2018-04-16T07:37:40.356Z,62.19
2018-04-16T07:38:40.368Z,62.00
2018-04-16T07:39:40.371Z,61.35
2018-04-16T07:40:40.392Z,59.20
2018-04-16T07:41:40.390Z,56.41
2018-04-16T07:42:40.409Z,53.55
2018-04-16T07:43:40.468Z,51.68
2018-04-16T07:44:40.425Z,49.34
2018-04-16T07:45:40.440Z,46.96
2018-04-16T07:46:40.445Z,44.48
2018-04-16T07:47:40.468Z,43.26
2018-04-16T07:48:40.477Z,42.29
2018-04-16T07:49:40.490Z,42.49
2018-04-16T07:50:40.498Z,41.93
2018-04-16T07:51:40.502Z,41.93
2018-04-16T07:52:40.522Z,43.10
2018-04-16T07:53:46.051Z,45.27
2018-04-16T07:54:40.538Z,47.36
2018-04-16T07:55:40.553Z,47.84
2018-04-16T07:56:40.564Z,46.84
2018-04-16T07:57:40.616Z,44.54
2018-04-16T07:58:40.633Z,45.92
2018-04-16T07:59:40.604Z,46.70
2018-04-16T08:00:40.625Z,47.86
2018-04-16T08:01:40.628Z,45.97
2018-04-16T08:02:40.658Z,44.73
2018-04-16T08:03:40.659Z,44.83
2018-04-16T08:04:40.675Z,44.42
2018-04-16T08:05:40.682Z,45.37
2018-04-16T08:06:40.767Z,45.70
2018-04-16T08:07:40.711Z,43.90
2018-04-16T08:08:40.728Z,42.64
2018-04-16T08:09:40.742Z,42.85
2018-04-16T08:10:40.753Z,43.05
2018-04-16T08:11:40.762Z,41.63
2018-04-16T08:12:40.790Z,40.11
2018-04-16T08:13:40.814Z,38.49
2018-04-16T08:14:40.812Z,38.30
2018-04-16T08:15:40.826Z,38.36
2018-04-16T08:16:40.838Z,39.24
2018-04-16T08:17:40.869Z,39.59
2018-04-16T08:18:40.870Z,40.93
2018-04-16T08:19:40.904Z,40.73
2018-04-16T08:20:40.906Z,40.73
2018-04-16T08:21:40.949Z,40.85
2018-04-16T08:22:40.957Z,40.81
2018-04-16T08:23:40.956Z,41.20
2018-04-16T08:24:40.980Z,42.35
2018-04-16T08:25:40.981Z,42.08
2018-04-16T08:26:41.008Z,41.03
2018-04-16T08:27:41.016Z,40.29
2018-04-16T08:28:41.032Z,39.43
2018-04-16T08:29:41.053Z,38.38
2018-04-16T08:30:41.064Z,37.43
2018-04-16T08:31:41.091Z,36.57
2018-04-16T08:32:41.103Z,36.74
2018-04-16T08:33:41.127Z,38.36
2018-04-16T08:34:41.137Z,40.15
2018-04-16T08:35:41.152Z,40.72
2018-04-16T08:36:41.171Z,41.78
2018-04-16T08:37:41.202Z,40.09
2018-04-16T08:38:41.216Z,39.61
2018-04-16T08:39:41.219Z,38.65
2018-04-16T08:40:41.245Z,37.62
2018-04-16T08:41:41.252Z,37.12
2018-04-16T08:42:41.271Z,37.13
2018-04-16T08:43:41.291Z,37.12
2018-04-16T08:44:41.312Z,37.60
2018-04-16T08:45:41.328Z,37.77
2018-04-16T08:46:41.354Z,37.71
2018-04-16T08:47:41.367Z,37.81
2018-04-16T08:48:41.395Z,37.89
2018-04-16T08:49:41.411Z,37.58
2018-04-16T08:50:41.417Z,37.97
2018-04-16T08:51:41.439Z,37.87
2018-04-16T08:52:41.545Z,39.00
2018-04-16T08:53:41.477Z,39.29
2018-04-16T08:54:41.490Z,38.79
2018-04-16T08:55:41.521Z,39.16
2018-04-16T08:56:41.529Z,39.65
2018-04-16T08:57:41.558Z,39.10
2018-04-16T08:58:41.581Z,38.13
2018-04-16T08:59:41.649Z,38.34
2018-04-16T09:00:41.633Z,39.28
2018-04-16T09:01:41.618Z,40.60
2018-04-16T09:02:41.636Z,41.74
2018-04-16T09:03:41.667Z,41.26
2018-04-16T09:04:41.682Z,42.46
2018-04-16T09:05:41.693Z,43.50
2018-04-16T09:06:41.714Z,44.47
2018-04-16T09:07:41.735Z,45.73
2018-04-16T09:08:41.794Z,45.44
2018-04-16T09:09:41.769Z,45.42
2018-04-16T09:10:41.787Z,46.00
2018-04-16T09:11:41.796Z,46.56
2018-04-16T09:12:41.813Z,46.66
2018-04-16T09:13:41.826Z,46.36
2018-04-16T09:14:41.848Z,46.94
2018-04-16T09:15:41.867Z,46.22
2018-04-16T09:16:41.880Z,44.32
2018-04-16T09:17:41.995Z,43.88
2018-04-16T09:18:41.910Z,42.61
2018-04-16T09:19:41.938Z,43.27
2018-04-16T09:20:41.945Z,42.43
2018-04-16T09:21:41.951Z,41.74
2018-04-16T09:22:41.969Z,41.06
2018-04-16T09:23:41.989Z,42.48
2018-04-16T09:24:42.008Z,43.02
2018-04-16T09:25:42.012Z,44.35
2018-04-16T09:26:42.034Z,43.70
2018-04-16T09:27:42.047Z,43.70
2018-04-16T09:28:42.061Z,43.13
2018-04-16T09:29:42.084Z,43.21
2018-04-16T09:30:42.106Z,43.48
2018-04-16T09:31:42.110Z,44.06
2018-04-16T09:32:42.130Z,44.23
2018-04-16T09:33:42.150Z,44.23
2018-04-16T09:34:42.234Z,44.53
2018-04-16T09:35:42.168Z,44.72
2018-04-16T09:36:42.181Z,45.66
2018-04-16T09:37:42.203Z,45.49
2018-04-16T09:38:42.231Z,45.49
2018-04-16T09:39:42.235Z,44.72
2018-04-16T09:40:42.345Z,45.10
2018-04-16T09:41:42.429Z,45.78
2018-04-16T09:42:42.280Z,45.30
2018-04-16T09:43:42.282Z,44.54
2018-04-16T09:44:42.307Z,43.96
2018-04-16T09:45:42.327Z,44.06
2018-04-16T09:46:42.326Z,44.53
2018-04-16T09:47:42.345Z,45.20
2018-04-16T09:48:42.356Z,46.15
2018-04-16T09:49:42.373Z,46.15
2018-04-16T09:50:42.386Z,46.63
2018-04-16T09:51:42.408Z,46.34
2018-04-16T09:52:42.419Z,45.08
2018-04-16T09:53:42.429Z,45.20
2018-04-16T09:54:42.450Z,44.47
2018-04-16T09:55:42.458Z,43.72
2018-04-16T09:56:42.478Z,42.94
2018-04-16T09:57:42.497Z,42.75
2018-04-16T09:58:42.505Z,42.36
2018-04-16T09:59:42.520Z,42.63
2018-04-16T10:00:42.535Z,43.31
2018-04-16T10:01:42.550Z,43.96
2018-04-16T10:02:42.557Z,44.54
2018-04-16T10:03:42.569Z,45.30
2018-04-16T10:04:42.593Z,44.91
2018-04-16T10:05:42.612Z,45.20
2018-04-16T10:06:42.620Z,45.42
2018-04-16T10:07:42.635Z,44.26
2018-04-16T10:08:42.649Z,44.64
2018-04-16T10:09:42.688Z,45.22
2018-04-16T10:10:42.688Z,45.30
2018-04-16T10:11:42.701Z,45.49
2018-04-16T10:12:42.705Z,44.64
2018-04-16T10:13:42.726Z,43.72
2018-04-16T10:14:42.741Z,43.04
2018-04-16T10:15:42.754Z,44.26
2018-04-16T10:16:42.784Z,44.84
2018-04-16T10:17:42.775Z,44.72
2018-04-16T10:18:42.794Z,44.89
2018-04-16T10:19:42.806Z,45.66
2018-04-16T10:20:42.829Z,46.42
2018-04-16T10:21:42.851Z,46.88
2018-04-16T10:22:42.863Z,46.32
2018-04-16T10:23:42.876Z,46.05
2018-04-16T10:24:42.883Z,46.05
2018-04-16T10:25:42.891Z,45.57
2018-04-16T10:26:42.910Z,46.34
2018-04-16T10:27:42.923Z,46.25
2018-04-16T10:28:42.946Z,46.73
2018-04-16T10:29:42.953Z,45.45
2018-04-16T10:30:42.982Z,46.68
2018-04-16T10:31:42.978Z,47.65
2018-04-16T10:32:42.989Z,47.53
2018-04-16T10:33:43.060Z,48.11
2018-04-16T10:34:43.028Z,47.65
2018-04-16T10:35:43.045Z,47.58
2018-04-16T10:36:43.051Z,47.28
2018-04-16T10:37:43.069Z,46.32
2018-04-16T10:38:43.088Z,45.66
2018-04-16T10:39:43.092Z,45.47
2018-04-16T10:40:43.105Z,44.91
2018-04-16T10:41:43.142Z,44.81
2018-04-16T10:42:43.129Z,44.26
2018-04-16T10:43:43.145Z,44.45
2018-04-16T10:44:43.156Z,44.54
2018-04-16T10:45:43.175Z,44.72
2018-04-16T10:46:43.188Z,44.33
2018-04-16T10:47:43.194Z,44.62
2018-04-16T10:48:43.215Z,44.98
2018-04-16T10:49:43.266Z,45.83
2018-04-16T10:50:43.241Z,46.39
2018-04-16T10:51:43.264Z,46.03
2018-04-16T10:52:43.271Z,46.51
2018-04-16T10:53:43.304Z,46.51
2018-04-16T10:54:43.333Z,45.35
2018-04-16T10:55:43.381Z,45.54
2018-04-16T10:56:43.378Z,45.64
2018-04-16T10:57:43.377Z,45.25
2018-04-16T10:58:43.376Z,44.50
2018-04-16T10:59:43.405Z,45.25
2018-04-16T11:00:43.414Z,45.25
2018-04-16T11:01:43.426Z,45.86
2018-04-16T11:02:43.421Z,45.47
2018-04-16T11:03:43.500Z,45.18
2018-04-16T11:04:43.633Z,45.45
2018-04-16T11:05:43.499Z,46.32
2018-04-16T11:06:43.495Z,46.32
2018-04-16T11:07:43.525Z,44.79
2018-04-16T11:08:43.539Z,44.62
2018-04-16T11:09:43.550Z,44.43
2018-04-16T11:10:43.567Z,43.87
2018-04-16T11:11:43.575Z,43.58
2018-04-16T11:12:43.580Z,43.29
2018-04-16T11:13:43.598Z,43.95
2018-04-16T11:14:43.615Z,44.13
2018-04-16T11:15:43.591Z,44.48
2018-04-16T11:16:43.602Z,44.56
2018-04-16T11:17:43.625Z,44.94
2018-04-16T11:18:43.634Z,44.75
2018-04-16T11:19:43.652Z,44.65
2018-04-16T11:20:43.675Z,45.33
2018-04-16T11:21:43.673Z,45.04
2018-04-16T11:22:43.691Z,45.01
2018-04-16T11:23:43.736Z,45.21
2018-04-16T11:24:43.738Z,46.08
2018-04-16T11:25:43.734Z,46.17
2018-04-16T11:26:43.750Z,46.08
2018-04-16T11:27:43.755Z,46.17
2018-04-16T11:28:43.775Z,46.08
2018-04-16T11:29:43.800Z,45.79
2018-04-16T11:30:43.796Z,46.47
2018-04-16T11:31:43.831Z,45.31
2018-04-16T11:32:43.877Z,46.08
2018-04-16T11:33:43.830Z,45.69
2018-04-16T11:34:43.847Z,46.25
2018-04-16T11:35:43.858Z,47.33
2018-04-16T11:36:43.868Z,47.43
2018-04-16T11:37:43.889Z,47.53
2018-04-16T11:38:43.903Z,46.37
2018-04-16T11:39:43.926Z,45.42
2018-04-16T11:40:43.920Z,44.94
2018-04-16T11:41:43.934Z,44.96
2018-04-16T11:42:43.948Z,44.48
2018-04-16T11:43:43.961Z,44.57
2018-04-16T11:44:43.973Z,44.38
2018-04-16T11:45:43.983Z,44.48
2018-04-16T11:46:43.994Z,45.33
2018-04-16T11:47:44.014Z,45.25
2018-04-16T11:48:44.019Z,45.54
2018-04-16T11:49:44.043Z,45.42
2018-04-16T11:50:44.050Z,46.30
2018-04-16T11:51:44.053Z,46.27
2018-04-16T11:52:44.076Z,47.05
2018-04-16T11:53:44.078Z,47.80
2018-04-16T11:54:44.097Z,47.70
2018-04-16T11:55:44.107Z,47.70
2018-04-16T11:56:44.143Z,47.60
2018-04-16T11:57:44.134Z,47.80
2018-04-16T11:58:44.168Z,47.60
2018-04-16T11:59:44.155Z,47.80
2018-04-16T12:00:44.177Z,47.50
2018-04-16T12:01:44.180Z,47.80
2018-04-16T12:02:44.194Z,47.22
2018-04-16T12:03:44.209Z,48.08
2018-04-16T12:04:44.219Z,48.18
2018-04-16T12:05:44.239Z,49.44
2018-04-16T12:06:44.247Z,48.54
2018-04-16T12:07:44.253Z,49.41
2018-04-16T12:08:44.267Z,49.32
2018-04-16T12:09:44.277Z,49.51
2018-04-16T12:10:44.292Z,50.28
2018-04-16T12:11:44.296Z,50.18
2018-04-16T12:12:44.311Z,50.96
2018-04-16T12:13:44.323Z,50.84
2018-04-16T12:14:44.329Z,50.35
2018-04-16T12:15:44.348Z,50.84
2018-04-16T12:16:44.359Z,50.16
2018-04-16T12:17:44.365Z,50.47
2018-04-16T12:18:44.376Z,49.41
2018-04-16T12:19:44.407Z,49.22
2018-04-16T12:20:44.398Z,49.32
2018-04-16T12:21:44.414Z,49.22
2018-04-16T12:22:44.417Z,49.90
2018-04-16T12:23:44.438Z,49.44
2018-04-16T12:24:44.444Z,49.44
2018-04-16T12:25:44.456Z,49.53
2018-04-16T12:26:44.460Z,48.69
2018-04-16T12:27:44.502Z,48.30
2018-04-16T12:28:44.483Z,47.72
2018-04-16T12:29:44.490Z,47.74
2018-04-16T12:30:44.505Z,47.74
2018-04-16T12:31:44.508Z,46.78
2018-04-16T12:32:44.526Z,46.39
2018-04-16T12:33:44.535Z,46.32
2018-04-16T12:34:44.542Z,45.93
2018-04-16T12:35:44.554Z,46.03
2018-04-16T12:36:44.571Z,46.32
2018-04-16T12:37:44.584Z,45.37
2018-04-16T12:38:44.585Z,45.47
2018-04-16T12:39:44.623Z,45.54
2018-04-16T12:40:44.603Z,44.48
2018-04-16T12:41:44.620Z,44.09
2018-04-16T12:42:44.621Z,43.99
2018-04-16T12:43:44.637Z,44.19
2018-04-16T12:44:44.646Z,45.06
2018-04-16T12:45:44.659Z,45.83
2018-04-16T12:46:44.674Z,46.00
2018-04-16T12:47:44.677Z,46.68
2018-04-16T12:48:44.699Z,46.68
2018-04-16T12:49:44.708Z,46.03
2018-04-16T12:50:44.712Z,46.51
2018-04-16T12:51:44.729Z,45.83
2018-04-16T12:52:44.739Z,45.06